Flight Number: EUR1565 Duration: 1:30
Departure: Olbia Costa Smeralda (LIEO) at 06:30 Distance: 542 Nm
Arrival: Luxembourg (ELLX) at 08:00 Equipment: B737

Weather Information
Olbia / Costa Smeralda, Italy (LIEO) 40-54N 009-31E 13M Feb 19, 2018 - 02:20 AM EST / 2018.02.19 0720 UTC
Wind: from the SSW (210 degrees) at 3 MPH (3 KT):0
Visibility: greater than 7 mile(s):0
Sky conditions: mostly cloudy Weather: light rain Temperature: 48 F (9 C) Dew Point: 48 F (9 C) Relative Humidity: 100% Pressure (altimeter): 29.94 in. Hg (1014 hPa)
ob: LIEO 190720Z 21003KT 9999 -RA BKN020 09/09 Q1014 RERA cycle: 7
Sunrise: 06:13 Sunset: 16:58 (UTC)

Luxembourg / Luxembourg, Luxembourg (ELLX) 49-37N 006-13E 379M Feb 19, 2018 - 02:20 AM EST / 2018.02.19 0720 UTC
Wind: Variable at 1 MPH (1 KT):0
Visibility: greater than 7 mile(s):0
Sky conditions: mostly cloudy Temperature: 28 F (-2 C) Dew Point: 24 F (-4 C) Relative Humidity: 86% Pressure (altimeter): 30.12 in. Hg (1020 hPa)
ob: ELLX 190720Z VRB01KT 9999 BKN012 M02/M04 Q1020 NOSIG cycle: 7
Sunrise: 06:40 Sunset: 16:57 (UTC)

TAF:2018/02/19 06:27 TAF ELLX 190500Z 1906/2012 14005KT 8000 BKN007 BECMG 1908/1910 9999 BKN013 TEMPO 1912/1918 SCT015 BECMG 2001/2003 06007KT

Previous Pireps for this route
Date Aircraft Flight time Fuel used Landing rate On time
2016-05-16B73702.0810551-268No
(pireps marked green are flown by you)

Route map